sensor_id;sensor_type;location;lat;lon;timestamp;P1;durP1;ratioP1;P2;durP2;ratioP2
18532;SDS011;9396;51.510;11.934;2024-02-21T00:02:20;12.80;;;4.13;;
18532;SDS011;9396;51.510;11.934;2024-02-21T00:04:46;15.13;;;3.80;;
18532;SDS011;9396;51.510;11.934;2024-02-21T00:07:13;10.20;;;3.33;;
18532;SDS011;9396;51.510;11.934;2024-02-21T00:09:40;12.97;;;3.93;;
18532;SDS011;9396;51.510;11.934;2024-02-21T00:12:08;17.97;;;3.60;;
18532;SDS011;9396;51.510;11.934;2024-02-21T00:14:35;12.13;;;3.77;;
18532;SDS011;9396;51.510;11.934;2024-02-21T00:17:01;11.80;;;3.30;;
18532;SDS011;9396;51.510;11.934;2024-02-21T00:19:28;14.10;;;3.83;;
18532;SDS011;9396;51.510;11.934;2024-02-21T00:21:55;8.90;;;3.97;;
18532;SDS011;9396;51.510;11.934;2024-02-21T00:24:21;13.40;;;3.47;;
18532;SDS011;9396;51.510;11.934;2024-02-21T00:26:48;9.67;;;3.93;;
18532;SDS011;9396;51.510;11.934;2024-02-21T00:29:16;10.30;;;3.47;;
18532;SDS011;9396;51.510;11.934;2024-02-21T00:31:42;9.20;;;3.87;;
18532;SDS011;9396;51.510;11.934;2024-02-21T00:34:09;11.87;;;3.77;;
18532;SDS011;9396;51.510;11.934;2024-02-21T00:36:37;9.37;;;3.50;;
18532;SDS011;9396;51.510;11.934;2024-02-21T00:39:04;13.57;;;4.13;;
18532;SDS011;9396;51.510;11.934;2024-02-21T00:41:31;9.87;;;3.00;;
18532;SDS011;9396;51.510;11.934;2024-02-21T00:43:58;12.27;;;3.80;;
18532;SDS011;9396;51.510;11.934;2024-02-21T00:46:26;14.13;;;3.83;;
18532;SDS011;9396;51.510;11.934;2024-02-21T00:48:53;13.67;;;3.97;;
18532;SDS011;9396;51.510;11.934;2024-02-21T00:51:20;14.33;;;4.00;;
18532;SDS011;9396;51.510;11.934;2024-02-21T00:53:46;13.43;;;3.67;;
18532;SDS011;9396;51.510;11.934;2024-02-21T00:56:13;13.30;;;3.33;;
18532;SDS011;9396;51.510;11.934;2024-02-21T00:58:40;18.17;;;4.10;;
18532;SDS011;9396;51.510;11.934;2024-02-21T01:01:06;15.33;;;4.17;;
18532;SDS011;9396;51.510;11.934;2024-02-21T01:03:34;10.33;;;3.20;;
18532;SDS011;9396;51.510;11.934;2024-02-21T01:06:01;9.73;;;3.20;;
18532;SDS011;9396;51.510;11.934;2024-02-21T01:08:27;14.27;;;4.30;;
18532;SDS011;9396;51.510;11.934;2024-02-21T01:10:54;13.13;;;3.97;;
18532;SDS011;9396;51.510;11.934;2024-02-21T01:13:21;12.03;;;3.73;;
18532;SDS011;9396;51.510;11.934;2024-02-21T01:15:47;11.73;;;3.87;;
18532;SDS011;9396;51.510;11.934;2024-02-21T01:18:14;12.63;;;3.70;;
18532;SDS011;9396;51.510;11.934;2024-02-21T01:20:42;13.37;;;3.83;;
18532;SDS011;9396;51.510;11.934;2024-02-21T01:23:09;11.63;;;3.83;;
18532;SDS011;9396;51.510;11.934;2024-02-21T01:25:35;11.23;;;4.23;;
18532;SDS011;9396;51.510;11.934;2024-02-21T01:28:02;10.20;;;3.90;;
18532;SDS011;9396;51.510;11.934;2024-02-21T01:30:29;16.50;;;4.27;;
18532;SDS011;9396;51.510;11.934;2024-02-21T01:32:55;9.27;;;3.70;;
18532;SDS011;9396;51.510;11.934;2024-02-21T01:35:22;7.63;;;3.40;;
18532;SDS011;9396;51.510;11.934;2024-02-21T01:37:50;11.33;;;3.37;;
18532;SDS011;9396;51.510;11.934;2024-02-21T01:40:17;12.90;;;3.83;;
18532;SDS011;9396;51.510;11.934;2024-02-21T01:42:44;15.67;;;4.27;;
18532;SDS011;9396;51.510;11.934;2024-02-21T01:45:12;17.53;;;3.93;;
18532;SDS011;9396;51.510;11.934;2024-02-21T01:47:39;10.47;;;3.70;;
18532;SDS011;9396;51.510;11.934;2024-02-21T01:50:07;13.70;;;3.70;;
18532;SDS011;9396;51.510;11.934;2024-02-21T01:52:34;10.47;;;3.70;;
18532;SDS011;9396;51.510;11.934;2024-02-21T01:55:03;14.20;;;3.90;;
18532;SDS011;9396;51.510;11.934;2024-02-21T01:57:31;17.07;;;3.93;;
18532;SDS011;9396;51.510;11.934;2024-02-21T01:59:58;8.07;;;3.13;;
18532;SDS011;9396;51.510;11.934;2024-02-21T02:02:25;12.70;;;3.67;;
18532;SDS011;9396;51.510;11.934;2024-02-21T02:04:52;14.00;;;3.50;;
18532;SDS011;9396;51.510;11.934;2024-02-21T02:07:19;8.00;;;3.50;;
18532;SDS011;9396;51.510;11.934;2024-02-21T02:09:46;12.37;;;3.10;;
18532;SDS011;9396;51.510;11.934;2024-02-21T02:12:14;11.43;;;3.63;;
18532;SDS011;9396;51.510;11.934;2024-02-21T02:14:40;15.13;;;4.17;;
18532;SDS011;9396;51.510;11.934;2024-02-21T02:17:07;14.40;;;3.43;;
18532;SDS011;9396;51.510;11.934;2024-02-21T02:19:34;9.27;;;3.77;;
18532;SDS011;9396;51.510;11.934;2024-02-21T02:22:02;12.27;;;3.13;;
18532;SDS011;9396;51.510;11.934;2024-02-21T02:24:37;15.03;;;3.73;;
18532;SDS011;9396;51.510;11.934;2024-02-21T02:27:03;11.13;;;3.47;;
18532;SDS011;9396;51.510;11.934;2024-02-21T02:29:31;9.10;;;3.33;;
18532;SDS011;9396;51.510;11.934;2024-02-21T02:31:58;11.20;;;3.37;;
18532;SDS011;9396;51.510;11.934;2024-02-21T02:34:25;11.13;;;3.83;;
18532;SDS011;9396;51.510;11.934;2024-02-21T02:36:51;11.10;;;3.50;;
18532;SDS011;9396;51.510;11.934;2024-02-21T02:39:19;16.33;;;4.23;;
18532;SDS011;9396;51.510;11.934;2024-02-21T02:41:47;17.23;;;3.90;;
18532;SDS011;9396;51.510;11.934;2024-02-21T02:44:14;13.50;;;3.67;;
18532;SDS011;9396;51.510;11.934;2024-02-21T02:46:41;9.97;;;3.53;;
18532;SDS011;9396;51.510;11.934;2024-02-21T02:49:08;11.30;;;3.47;;
18532;SDS011;9396;51.510;11.934;2024-02-21T02:51:34;11.13;;;3.67;;
18532;SDS011;9396;51.510;11.934;2024-02-21T02:54:01;15.33;;;3.60;;
18532;SDS011;9396;51.510;11.934;2024-02-21T02:56:28;11.90;;;4.00;;
18532;SDS011;9396;51.510;11.934;2024-02-21T02:58:56;15.10;;;3.63;;
18532;SDS011;9396;51.510;11.934;2024-02-21T03:01:23;15.13;;;3.53;;
18532;SDS011;9396;51.510;11.934;2024-02-21T03:03:49;9.30;;;3.50;;
18532;SDS011;9396;51.510;11.934;2024-02-21T03:06:16;17.00;;;4.40;;
18532;SDS011;9396;51.510;11.934;2024-02-21T03:08:43;12.37;;;3.37;;
18532;SDS011;9396;51.510;11.934;2024-02-21T03:11:09;10.70;;;3.30;;
18532;SDS011;9396;51.510;11.934;2024-02-21T03:13:37;13.47;;;4.20;;
18532;SDS011;9396;51.510;11.934;2024-02-21T03:16:05;10.03;;;3.60;;
18532;SDS011;9396;51.510;11.934;2024-02-21T03:18:32;13.27;;;3.40;;
18532;SDS011;9396;51.510;11.934;2024-02-21T03:20:59;11.27;;;3.73;;
18532;SDS011;9396;51.510;11.934;2024-02-21T03:23:25;14.20;;;3.53;;
18532;SDS011;9396;51.510;11.934;2024-02-21T03:25:52;10.17;;;3.00;;
18532;SDS011;9396;51.510;11.934;2024-02-21T03:28:18;13.23;;;4.30;;
18532;SDS011;9396;51.510;11.934;2024-02-21T03:30:45;10.87;;;3.20;;
18532;SDS011;9396;51.510;11.934;2024-02-21T03:33:13;12.77;;;3.47;;
18532;SDS011;9396;51.510;11.934;2024-02-21T03:35:39;13.20;;;4.57;;
18532;SDS011;9396;51.510;11.934;2024-02-21T03:38:06;13.27;;;4.70;;
18532;SDS011;9396;51.510;11.934;2024-02-21T03:40:33;14.47;;;3.90;;
18532;SDS011;9396;51.510;11.934;2024-02-21T03:42:59;14.60;;;3.93;;
18532;SDS011;9396;51.510;11.934;2024-02-21T03:45:26;8.77;;;3.60;;
18532;SDS011;9396;51.510;11.934;2024-02-21T03:47:53;12.80;;;4.13;;
18532;SDS011;9396;51.510;11.934;2024-02-21T03:50:20;16.10;;;4.57;;
18532;SDS011;9396;51.510;11.934;2024-02-21T03:52:47;14.87;;;4.10;;
18532;SDS011;9396;51.510;11.934;2024-02-21T03:55:14;12.90;;;4.40;;
18532;SDS011;9396;51.510;11.934;2024-02-21T03:57:40;15.63;;;4.07;;
18532;SDS011;9396;51.510;11.934;2024-02-21T04:00:07;18.80;;;3.90;;
18532;SDS011;9396;51.510;11.934;2024-02-21T04:02:37;11.70;;;3.57;;
18532;SDS011;9396;51.510;11.934;2024-02-21T04:05:04;13.77;;;4.70;;
18532;SDS011;9396;51.510;11.934;2024-02-21T04:07:32;15.10;;;4.50;;
18532;SDS011;9396;51.510;11.934;2024-02-21T04:09:59;14.57;;;4.37;;
18532;SDS011;9396;51.510;11.934;2024-02-21T04:12:25;15.60;;;4.10;;
18532;SDS011;9396;51.510;11.934;2024-02-21T04:14:52;12.07;;;3.97;;
18532;SDS011;9396;51.510;11.934;2024-02-21T04:17:19;14.40;;;4.73;;
18532;SDS011;9396;51.510;11.934;2024-02-21T04:19:45;15.83;;;4.33;;
18532;SDS011;9396;51.510;11.934;2024-02-21T04:22:12;11.13;;;3.80;;
18532;SDS011;9396;51.510;11.934;2024-02-21T04:24:40;14.17;;;4.53;;
18532;SDS011;9396;51.510;11.934;2024-02-21T04:27:07;12.93;;;4.30;;
18532;SDS011;9396;51.510;11.934;2024-02-21T04:29:33;15.20;;;3.90;;
18532;SDS011;9396;51.510;11.934;2024-02-21T04:32:01;11.87;;;4.13;;
18532;SDS011;9396;51.510;11.934;2024-02-21T04:34:28;9.60;;;3.77;;
18532;SDS011;9396;51.510;11.934;2024-02-21T04:36:54;16.73;;;4.13;;
18532;SDS011;9396;51.510;11.934;2024-02-21T04:39:21;16.40;;;3.83;;
18532;SDS011;9396;51.510;11.934;2024-02-21T04:41:49;13.20;;;3.50;;
18532;SDS011;9396;51.510;11.934;2024-02-21T04:44:15;10.27;;;4.07;;
18532;SDS011;9396;51.510;11.934;2024-02-21T04:46:42;10.57;;;4.10;;
18532;SDS011;9396;51.510;11.934;2024-02-21T04:49:09;12.67;;;4.57;;
18532;SDS011;9396;51.510;11.934;2024-02-21T04:51:35;12.97;;;4.67;;
18532;SDS011;9396;51.510;11.934;2024-02-21T04:54:02;13.57;;;3.63;;
18532;SDS011;9396;51.510;11.934;2024-02-21T04:56:29;10.30;;;4.10;;
18532;SDS011;9396;51.510;11.934;2024-02-21T04:58:57;12.50;;;4.77;;
18532;SDS011;9396;51.510;11.934;2024-02-21T05:01:24;10.70;;;4.50;;
18532;SDS011;9396;51.510;11.934;2024-02-21T05:03:51;11.43;;;4.17;;
18532;SDS011;9396;51.510;11.934;2024-02-21T05:06:17;8.77;;;4.80;;
18532;SDS011;9396;51.510;11.934;2024-02-21T05:08:44;15.97;;;4.60;;
18532;SDS011;9396;51.510;11.934;2024-02-21T05:11:11;13.50;;;5.23;;
18532;SDS011;9396;51.510;11.934;2024-02-21T05:13:37;12.30;;;5.07;;
18532;SDS011;9396;51.510;11.934;2024-02-21T05:16:06;14.93;;;5.70;;
18532;SDS011;9396;51.510;11.934;2024-02-21T05:18:32;14.10;;;4.93;;
18532;SDS011;9396;51.510;11.934;2024-02-21T05:21:00;14.77;;;5.83;;
18532;SDS011;9396;51.510;11.934;2024-02-21T05:23:27;14.30;;;5.17;;
18532;SDS011;9396;51.510;11.934;2024-02-21T05:25:54;15.40;;;5.27;;
18532;SDS011;9396;51.510;11.934;2024-02-21T05:28:20;13.83;;;5.33;;
18532;SDS011;9396;51.510;11.934;2024-02-21T05:30:47;16.97;;;6.10;;
18532;SDS011;9396;51.510;11.934;2024-02-21T05:33:15;18.40;;;5.83;;
18532;SDS011;9396;51.510;11.934;2024-02-21T05:35:46;14.43;;;5.53;;
18532;SDS011;9396;51.510;11.934;2024-02-21T05:38:12;14.17;;;5.67;;
18532;SDS011;9396;51.510;11.934;2024-02-21T05:40:39;17.47;;;5.97;;
18532;SDS011;9396;51.510;11.934;2024-02-21T05:43:06;10.40;;;5.60;;
18532;SDS011;9396;51.510;11.934;2024-02-21T05:45:33;11.47;;;5.33;;
18532;SDS011;9396;51.510;11.934;2024-02-21T05:48:00;16.97;;;5.80;;
18532;SDS011;9396;51.510;11.934;2024-02-21T05:50:29;14.27;;;5.40;;
18532;SDS011;9396;51.510;11.934;2024-02-21T05:52:56;17.23;;;5.80;;
18532;SDS011;9396;51.510;11.934;2024-02-21T05:55:22;18.40;;;6.67;;
18532;SDS011;9396;51.510;11.934;2024-02-21T05:57:49;16.33;;;6.40;;
18532;SDS011;9396;51.510;11.934;2024-02-21T06:00:16;17.53;;;6.37;;
18532;SDS011;9396;51.510;11.934;2024-02-21T06:02:43;17.20;;;6.00;;
18532;SDS011;9396;51.510;11.934;2024-02-21T06:05:09;15.20;;;6.33;;
18532;SDS011;9396;51.510;11.934;2024-02-21T06:07:38;16.60;;;6.53;;
18532;SDS011;9396;51.510;11.934;2024-02-21T06:10:05;16.07;;;6.27;;
18532;SDS011;9396;51.510;11.934;2024-02-21T06:12:32;13.13;;;5.57;;
18532;SDS011;9396;51.510;11.934;2024-02-21T06:14:59;19.60;;;6.73;;
18532;SDS011;9396;51.510;11.934;2024-02-21T06:17:26;15.63;;;5.87;;
18532;SDS011;9396;51.510;11.934;2024-02-21T06:19:52;16.63;;;7.00;;
18532;SDS011;9396;51.510;11.934;2024-02-21T06:22:19;18.87;;;7.07;;
18532;SDS011;9396;51.510;11.934;2024-02-21T06:24:47;16.37;;;6.87;;
18532;SDS011;9396;51.510;11.934;2024-02-21T06:27:15;17.13;;;7.40;;
18532;SDS011;9396;51.510;11.934;2024-02-21T06:29:42;15.57;;;6.30;;
18532;SDS011;9396;51.510;11.934;2024-02-21T06:32:09;18.13;;;6.97;;
18532;SDS011;9396;51.510;11.934;2024-02-21T06:34:35;17.67;;;6.77;;
18532;SDS011;9396;51.510;11.934;2024-02-21T06:37:02;18.00;;;6.53;;
18532;SDS011;9396;51.510;11.934;2024-02-21T06:39:29;16.40;;;6.30;;
18532;SDS011;9396;51.510;11.934;2024-02-21T06:41:57;16.50;;;6.13;;
18532;SDS011;9396;51.510;11.934;2024-02-21T06:44:23;21.60;;;6.73;;
18532;SDS011;9396;51.510;11.934;2024-02-21T06:46:50;13.10;;;6.20;;
18532;SDS011;9396;51.510;11.934;2024-02-21T06:49:17;17.03;;;5.80;;
18532;SDS011;9396;51.510;11.934;2024-02-21T06:51:44;16.27;;;6.03;;
18532;SDS011;9396;51.510;11.934;2024-02-21T06:54:10;14.13;;;6.30;;
18532;SDS011;9396;51.510;11.934;2024-02-21T06:56:37;13.80;;;5.60;;
18532;SDS011;9396;51.510;11.934;2024-02-21T06:59:06;12.37;;;6.03;;
18532;SDS011;9396;51.510;11.934;2024-02-21T07:01:33;13.57;;;6.40;;
18532;SDS011;9396;51.510;11.934;2024-02-21T07:04:00;15.63;;;6.17;;
18532;SDS011;9396;51.510;11.934;2024-02-21T07:06:26;15.83;;;5.57;;
18532;SDS011;9396;51.510;11.934;2024-02-21T07:08:53;14.47;;;5.80;;
18532;SDS011;9396;51.510;11.934;2024-02-21T07:11:20;14.83;;;5.50;;
18532;SDS011;9396;51.510;11.934;2024-02-21T07:13:46;16.50;;;6.07;;
18532;SDS011;9396;51.510;11.934;2024-02-21T07:16:14;17.90;;;5.60;;
18532;SDS011;9396;51.510;11.934;2024-02-21T07:18:41;14.67;;;6.00;;
18532;SDS011;9396;51.510;11.934;2024-02-21T07:21:08;13.87;;;6.03;;
18532;SDS011;9396;51.510;11.934;2024-02-21T07:23:34;15.53;;;5.90;;
18532;SDS011;9396;51.510;11.934;2024-02-21T07:26:01;18.13;;;7.23;;
18532;SDS011;9396;51.510;11.934;2024-02-21T07:28:28;14.40;;;5.70;;
18532;SDS011;9396;51.510;11.934;2024-02-21T07:30:54;13.73;;;6.17;;
18532;SDS011;9396;51.510;11.934;2024-02-21T07:33:22;9.63;;;5.07;;
18532;SDS011;9396;51.510;11.934;2024-02-21T07:35:49;14.80;;;5.50;;
18532;SDS011;9396;51.510;11.934;2024-02-21T07:38:15;13.97;;;5.67;;
18532;SDS011;9396;51.510;11.934;2024-02-21T07:40:44;8.53;;;4.60;;
18532;SDS011;9396;51.510;11.934;2024-02-21T07:43:10;16.00;;;5.80;;
18532;SDS011;9396;51.510;11.934;2024-02-21T07:45:37;14.53;;;5.77;;
18532;SDS011;9396;51.510;11.934;2024-02-21T07:48:04;13.17;;;5.17;;
18532;SDS011;9396;51.510;11.934;2024-02-21T07:50:33;11.23;;;5.47;;
18532;SDS011;9396;51.510;11.934;2024-02-21T07:52:59;10.33;;;5.13;;
18532;SDS011;9396;51.510;11.934;2024-02-21T07:55:26;15.40;;;5.77;;
18532;SDS011;9396;51.510;11.934;2024-02-21T07:57:53;16.83;;;6.00;;
18532;SDS011;9396;51.510;11.934;2024-02-21T08:00:19;10.93;;;5.80;;
18532;SDS011;9396;51.510;11.934;2024-02-21T08:02:47;10.43;;;5.20;;
18532;SDS011;9396;51.510;11.934;2024-02-21T08:05:14;15.40;;;5.90;;
18532;SDS011;9396;51.510;11.934;2024-02-21T08:07:42;15.03;;;5.33;;
18532;SDS011;9396;51.510;11.934;2024-02-21T08:10:09;15.70;;;5.50;;
18532;SDS011;9396;51.510;11.934;2024-02-21T08:12:36;9.83;;;4.57;;
18532;SDS011;9396;51.510;11.934;2024-02-21T08:15:03;15.07;;;5.70;;
18532;SDS011;9396;51.510;11.934;2024-02-21T08:17:30;15.50;;;5.70;;
18532;SDS011;9396;51.510;11.934;2024-02-21T08:19:57;13.80;;;6.00;;
18532;SDS011;9396;51.510;11.934;2024-02-21T08:22:23;14.10;;;5.67;;
18532;SDS011;9396;51.510;11.934;2024-02-21T08:24:51;12.50;;;5.97;;
18532;SDS011;9396;51.510;11.934;2024-02-21T08:27:18;13.13;;;5.33;;
18532;SDS011;9396;51.510;11.934;2024-02-21T08:29:45;16.67;;;5.57;;
18532;SDS011;9396;51.510;11.934;2024-02-21T08:32:11;12.83;;;5.53;;
18532;SDS011;9396;51.510;11.934;2024-02-21T08:34:38;14.37;;;5.20;;
18532;SDS011;9396;51.510;11.934;2024-02-21T08:37:05;14.83;;;5.70;;
18532;SDS011;9396;51.510;11.934;2024-02-21T08:39:31;15.17;;;5.57;;
18532;SDS011;9396;51.510;11.934;2024-02-21T08:41:59;16.20;;;5.47;;
18532;SDS011;9396;51.510;11.934;2024-02-21T08:44:27;16.93;;;5.53;;
18532;SDS011;9396;51.510;11.934;2024-02-21T08:46:54;12.97;;;5.53;;
18532;SDS011;9396;51.510;11.934;2024-02-21T08:49:21;13.40;;;5.50;;
18532;SDS011;9396;51.510;11.934;2024-02-21T08:51:47;13.77;;;5.77;;
18532;SDS011;9396;51.510;11.934;2024-02-21T08:54:14;11.37;;;4.97;;
18532;SDS011;9396;51.510;11.934;2024-02-21T08:56:41;13.13;;;4.80;;
18532;SDS011;9396;51.510;11.934;2024-02-21T08:59:09;15.97;;;5.20;;
18532;SDS011;9396;51.510;11.934;2024-02-21T09:01:36;17.47;;;5.20;;
18532;SDS011;9396;51.510;11.934;2024-02-21T09:04:03;10.93;;;4.80;;
18532;SDS011;9396;51.510;11.934;2024-02-21T09:06:30;11.23;;;5.00;;
18532;SDS011;9396;51.510;11.934;2024-02-21T09:08:58;10.30;;;4.93;;
18532;SDS011;9396;51.510;11.934;2024-02-21T09:11:25;14.03;;;5.07;;
18532;SDS011;9396;51.510;11.934;2024-02-21T09:13:52;16.57;;;5.13;;
18532;SDS011;9396;51.510;11.934;2024-02-21T09:16:20;14.43;;;5.17;;
18532;SDS011;9396;51.510;11.934;2024-02-21T09:18:47;17.70;;;6.20;;
18532;SDS011;9396;51.510;11.934;2024-02-21T09:21:13;13.23;;;4.83;;
18532;SDS011;9396;51.510;11.934;2024-02-21T09:23:40;10.13;;;4.60;;
18532;SDS011;9396;51.510;11.934;2024-02-21T09:26:07;15.13;;;5.00;;
18532;SDS011;9396;51.510;11.934;2024-02-21T09:28:35;17.43;;;5.40;;
18532;SDS011;9396;51.510;11.934;2024-02-21T09:31:02;12.23;;;4.80;;
18532;SDS011;9396;51.510;11.934;2024-02-21T09:33:30;14.07;;;4.87;;
18532;SDS011;9396;51.510;11.934;2024-02-21T09:35:56;9.60;;;4.17;;
18532;SDS011;9396;51.510;11.934;2024-02-21T09:38:23;12.77;;;4.53;;
18532;SDS011;9396;51.510;11.934;2024-02-21T09:40:52;20.40;;;4.70;;
18532;SDS011;9396;51.510;11.934;2024-02-21T09:43:24;14.33;;;4.47;;
18532;SDS011;9396;51.510;11.934;2024-02-21T09:45:52;13.67;;;4.43;;
18532;SDS011;9396;51.510;11.934;2024-02-21T09:51:13;7.97;;;4.30;;
18532;SDS011;9396;51.510;11.934;2024-02-21T09:53:41;11.80;;;4.13;;
18532;SDS011;9396;51.510;11.934;2024-02-21T09:56:09;13.60;;;4.70;;
18532;SDS011;9396;51.510;11.934;2024-02-21T09:58:37;14.57;;;4.97;;
18532;SDS011;9396;51.510;11.934;2024-02-21T10:01:04;7.43;;;3.87;;
18532;SDS011;9396;51.510;11.934;2024-02-21T10:03:31;10.70;;;4.77;;
18532;SDS011;9396;51.510;11.934;2024-02-21T10:06:00;13.10;;;4.60;;
18532;SDS011;9396;51.510;11.934;2024-02-21T10:08:27;8.90;;;3.83;;
18532;SDS011;9396;51.510;11.934;2024-02-21T10:10:54;15.43;;;4.33;;
18532;SDS011;9396;51.510;11.934;2024-02-21T10:13:24;11.23;;;4.47;;
18532;SDS011;9396;51.510;11.934;2024-02-21T10:16:02;12.17;;;4.80;;
18532;SDS011;9396;51.510;11.934;2024-02-21T10:18:30;11.73;;;4.20;;
18532;SDS011;9396;51.510;11.934;2024-02-21T10:21:13;11.00;;;4.10;;
18532;SDS011;9396;51.510;11.934;2024-02-21T10:23:40;9.47;;;3.87;;
18532;SDS011;9396;51.510;11.934;2024-02-21T10:26:10;10.30;;;4.30;;
18532;SDS011;9396;51.510;11.934;2024-02-21T10:28:37;9.50;;;3.93;;
18532;SDS011;9396;51.510;11.934;2024-02-21T10:31:07;8.60;;;3.97;;
18532;SDS011;9396;51.510;11.934;2024-02-21T10:33:34;14.03;;;4.43;;
18532;SDS011;9396;51.510;11.934;2024-02-21T10:36:09;10.33;;;4.20;;
18532;SDS011;9396;51.510;11.934;2024-02-21T10:38:36;10.30;;;3.80;;
18532;SDS011;9396;51.510;11.934;2024-02-21T10:41:04;12.13;;;4.20;;
18532;SDS011;9396;51.510;11.934;2024-02-21T10:43:32;6.50;;;3.53;;
18532;SDS011;9396;51.510;11.934;2024-02-21T10:46:04;10.53;;;4.07;;
18532;SDS011;9396;51.510;11.934;2024-02-21T10:48:33;11.80;;;4.00;;
18532;SDS011;9396;51.510;11.934;2024-02-21T10:51:10;8.60;;;3.27;;
18532;SDS011;9396;51.510;11.934;2024-02-21T10:53:42;8.97;;;3.53;;
18532;SDS011;9396;51.510;11.934;2024-02-21T10:56:16;10.47;;;3.70;;
18532;SDS011;9396;51.510;11.934;2024-02-21T10:58:48;8.30;;;3.30;;
18532;SDS011;9396;51.510;11.934;2024-02-21T11:01:15;9.10;;;3.97;;
18532;SDS011;9396;51.510;11.934;2024-02-21T11:03:44;9.87;;;3.83;;
18532;SDS011;9396;51.510;11.934;2024-02-21T11:06:14;10.87;;;3.73;;
18532;SDS011;9396;51.510;11.934;2024-02-21T11:08:42;6.87;;;3.07;;
18532;SDS011;9396;51.510;11.934;2024-02-21T11:11:11;9.00;;;3.00;;
18532;SDS011;9396;51.510;11.934;2024-02-21T11:13:42;7.77;;;3.00;;
18532;SDS011;9396;51.510;11.934;2024-02-21T11:16:09;11.27;;;3.40;;
18532;SDS011;9396;51.510;11.934;2024-02-21T11:18:37;7.33;;;2.70;;
18532;SDS011;9396;51.510;11.934;2024-02-21T11:21:04;7.50;;;2.83;;
18532;SDS011;9396;51.510;11.934;2024-02-21T11:23:33;6.53;;;2.80;;
18532;SDS011;9396;51.510;11.934;2024-02-21T11:26:06;4.50;;;2.67;;
18532;SDS011;9396;51.510;11.934;2024-02-21T11:28:32;6.10;;;2.57;;
18532;SDS011;9396;51.510;11.934;2024-02-21T11:31:09;6.13;;;2.13;;
18532;SDS011;9396;51.510;11.934;2024-02-21T11:33:39;5.27;;;2.50;;
18532;SDS011;9396;51.510;11.934;2024-02-21T11:36:06;7.23;;;2.27;;
18532;SDS011;9396;51.510;11.934;2024-02-21T11:38:34;4.50;;;2.13;;
18532;SDS011;9396;51.510;11.934;2024-02-21T11:41:01;7.80;;;2.30;;
18532;SDS011;9396;51.510;11.934;2024-02-21T11:43:28;6.20;;;2.20;;
18532;SDS011;9396;51.510;11.934;2024-02-21T11:46:01;7.03;;;2.43;;
18532;SDS011;9396;51.510;11.934;2024-02-21T11:48:28;5.83;;;2.57;;
18532;SDS011;9396;51.510;11.934;2024-02-21T11:50:55;8.70;;;3.17;;
18532;SDS011;9396;51.510;11.934;2024-02-21T11:53:23;8.53;;;2.80;;
18532;SDS011;9396;51.510;11.934;2024-02-21T11:55:53;8.33;;;2.80;;
18532;SDS011;9396;51.510;11.934;2024-02-21T11:58:21;7.93;;;3.00;;
18532;SDS011;9396;51.510;11.934;2024-02-21T12:00:49;7.50;;;2.80;;
18532;SDS011;9396;51.510;11.934;2024-02-21T12:03:15;5.63;;;2.53;;
18532;SDS011;9396;51.510;11.934;2024-02-21T12:05:42;8.73;;;3.30;;
18532;SDS011;9396;51.510;11.934;2024-02-21T12:08:09;10.37;;;3.13;;
18532;SDS011;9396;51.510;11.934;2024-02-21T12:10:35;6.27;;;2.93;;
18532;SDS011;9396;51.510;11.934;2024-02-21T12:13:06;15.07;;;3.60;;
18532;SDS011;9396;51.510;11.934;2024-02-21T12:15:34;9.40;;;3.40;;
18532;SDS011;9396;51.510;11.934;2024-02-21T12:18:01;10.57;;;3.47;;
18532;SDS011;9396;51.510;11.934;2024-02-21T12:20:27;12.97;;;3.33;;
18532;SDS011;9396;51.510;11.934;2024-02-21T12:22:54;9.20;;;3.37;;
18532;SDS011;9396;51.510;11.934;2024-02-21T12:25:21;7.80;;;2.90;;
18532;SDS011;9396;51.510;11.934;2024-02-21T12:27:51;9.17;;;3.73;;
18532;SDS011;9396;51.510;11.934;2024-02-21T12:30:19;8.63;;;2.73;;
18532;SDS011;9396;51.510;11.934;2024-02-21T12:32:45;9.17;;;3.40;;
18532;SDS011;9396;51.510;11.934;2024-02-21T12:35:13;8.67;;;3.37;;
18532;SDS011;9396;51.510;11.934;2024-02-21T12:37:40;6.60;;;3.20;;
18532;SDS011;9396;51.510;11.934;2024-02-21T12:40:08;7.07;;;3.07;;
18532;SDS011;9396;51.510;11.934;2024-02-21T12:42:38;11.10;;;3.43;;
18532;SDS011;9396;51.510;11.934;2024-02-21T12:45:05;4.93;;;3.10;;
18532;SDS011;9396;51.510;11.934;2024-02-21T12:47:34;7.57;;;3.60;;
18532;SDS011;9396;51.510;11.934;2024-02-21T12:50:00;10.20;;;3.33;;
18532;SDS011;9396;51.510;11.934;2024-02-21T12:52:28;8.03;;;3.70;;
18532;SDS011;9396;51.510;11.934;2024-02-21T12:54:56;7.40;;;3.80;;
18532;SDS011;9396;51.510;11.934;2024-02-21T12:57:23;14.33;;;3.87;;
18532;SDS011;9396;51.510;11.934;2024-02-21T12:59:50;8.93;;;3.47;;
18532;SDS011;9396;51.510;11.934;2024-02-21T13:02:17;8.53;;;3.93;;
18532;SDS011;9396;51.510;11.934;2024-02-21T13:04:46;8.57;;;3.97;;
18532;SDS011;9396;51.510;11.934;2024-02-21T13:07:13;9.70;;;4.10;;
18532;SDS011;9396;51.510;11.934;2024-02-21T13:09:39;8.37;;;4.10;;
18532;SDS011;9396;51.510;11.934;2024-02-21T13:12:06;9.23;;;4.13;;
18532;SDS011;9396;51.510;11.934;2024-02-21T13:14:34;10.20;;;4.83;;
18532;SDS011;9396;51.510;11.934;2024-02-21T13:17:03;9.20;;;4.17;;
18532;SDS011;9396;51.510;11.934;2024-02-21T13:19:29;12.87;;;4.77;;
18532;SDS011;9396;51.510;11.934;2024-02-21T13:21:57;9.73;;;4.43;;
18532;SDS011;9396;51.510;11.934;2024-02-21T13:24:24;8.17;;;4.03;;
18532;SDS011;9396;51.510;11.934;2024-02-21T13:26:51;8.30;;;4.20;;
18532;SDS011;9396;51.510;11.934;2024-02-21T13:29:17;6.47;;;4.20;;
18532;SDS011;9396;51.510;11.934;2024-02-21T13:31:45;10.90;;;4.53;;
18532;SDS011;9396;51.510;11.934;2024-02-21T13:34:12;11.23;;;4.40;;
18532;SDS011;9396;51.510;11.934;2024-02-21T13:36:38;9.40;;;4.23;;
18532;SDS011;9396;51.510;11.934;2024-02-21T13:39:06;11.57;;;4.50;;
18532;SDS011;9396;51.510;11.934;2024-02-21T13:41:37;9.40;;;3.90;;
18532;SDS011;9396;51.510;11.934;2024-02-21T13:44:04;8.80;;;4.07;;
18532;SDS011;9396;51.510;11.934;2024-02-21T13:46:31;9.30;;;3.87;;
18532;SDS011;9396;51.510;11.934;2024-02-21T13:49:02;9.53;;;3.33;;
18532;SDS011;9396;51.510;11.934;2024-02-21T13:51:31;7.87;;;3.77;;
18532;SDS011;9396;51.510;11.934;2024-02-21T13:53:58;10.20;;;4.03;;
18532;SDS011;9396;51.510;11.934;2024-02-21T13:56:26;8.10;;;3.60;;
18532;SDS011;9396;51.510;11.934;2024-02-21T13:58:53;9.47;;;3.60;;
18532;SDS011;9396;51.510;11.934;2024-02-21T14:01:20;8.87;;;3.80;;
18532;SDS011;9396;51.510;11.934;2024-02-21T14:03:46;8.23;;;3.87;;
18532;SDS011;9396;51.510;11.934;2024-02-21T14:06:13;9.17;;;3.80;;
18532;SDS011;9396;51.510;11.934;2024-02-21T14:08:40;6.93;;;3.93;;
18532;SDS011;9396;51.510;11.934;2024-02-21T14:11:06;9.03;;;4.00;;
18532;SDS011;9396;51.510;11.934;2024-02-21T14:13:34;11.00;;;3.77;;
18532;SDS011;9396;51.510;11.934;2024-02-21T14:16:01;13.27;;;3.83;;
18532;SDS011;9396;51.510;11.934;2024-02-21T14:18:28;11.47;;;3.73;;
18532;SDS011;9396;51.510;11.934;2024-02-21T14:20:54;7.60;;;4.10;;
18532;SDS011;9396;51.510;11.934;2024-02-21T14:23:21;9.00;;;4.10;;
18532;SDS011;9396;51.510;11.934;2024-02-21T14:25:48;9.53;;;3.70;;
18532;SDS011;9396;51.510;11.934;2024-02-21T14:28:15;8.80;;;3.40;;
18532;SDS011;9396;51.510;11.934;2024-02-21T14:30:44;6.27;;;3.37;;
18532;SDS011;9396;51.510;11.934;2024-02-21T14:33:12;9.30;;;3.93;;
18532;SDS011;9396;51.510;11.934;2024-02-21T14:35:39;9.90;;;3.63;;
18532;SDS011;9396;51.510;11.934;2024-02-21T14:38:07;5.97;;;3.33;;
18532;SDS011;9396;51.510;11.934;2024-02-21T14:40:34;7.13;;;3.70;;
18532;SDS011;9396;51.510;11.934;2024-02-21T14:43:00;9.70;;;3.60;;